KCKM/CKM METAR and TAF weather

Enter ICAO airport designator
Station Type Date Time Source
KCKM METAR 2018/10/16 21:15 UTC NOAA

KCKM 162115Z AUTO 36007KT 7SM SCT009 BKN013 11/11 A3023 RMK A01


Station Type Date Time Source
KCKM Decoded METAR 2018/10/16 21:15 UTC NOAA

Station name not available
Oct 16, 2018 - 05:15 PM EDT / 2018.10.16 2115 UTC
Wind: from the N (360 degrees) at 8 MPH (7 KT):0
Visibility: 7 mile(s):0
Sky conditions: mostly cloudy
Temperature: 51 F (11 C)
Dew Point: 51 F (11 C)
Relative Humidity: 100%
Pressure (altimeter): 30.23 in. Hg (1023 hPa)
ob: KCKM 162115Z AUTO 36007KT 7SM SCT009 BKN013 11/11 A3023 RMK A01
cycle: 21

Station Type Date Time Source
KCKM TAF UTC NOAA

Error!


Example: see airport list